Time;durP1;ratioP1;P1;durP2;ratioP2;P2;SDS_P1;SDS_P2;PMS_P1;PMS_P2;Temp;Humidity;BMP_temperature;BMP_pressure;BME280_temperature;BME280_humidity;BME280_pressure;Samples;Min_cycle;Max_cycle;Signal;HPM_P1;HPM_P2
2022/10/01 00:02:22;;;;;;;14.63;13.82;;;;;;;19.03;77.02;101254.41;4995327;28;102268;-53
2022/10/01 00:04:49;;;;;;;17.25;16.35;;;;;;;19.03;77.19;101260.72;5006891;28;103922;-53
2022/10/01 00:07:16;;;;;;;17.20;16.23;;;;;;;19.02;77.26;101250.84;5015391;28;102033;-53
2022/10/01 00:09:42;;;;;;;16.33;15.40;;;;;;;19.04;77.17;101258.78;5007697;28;102056;-53
2022/10/01 00:12:09;;;;;;;16.10;15.18;;;;;;;19.04;76.96;101256.03;5016678;28;102177;-53
2022/10/01 00:14:38;;;;;;;16.15;15.20;;;;;;;19.03;77.26;101254.41;5009220;28;103913;-53
2022/10/01 00:17:06;;;;;;;16.33;15.40;;;;;;;19.02;76.90;101247.25;5017789;28;103643;-53
2022/10/01 00:19:34;;;;;;;15.55;14.35;;;;;;;19.02;76.95;101250.84;5004642;28;102371;-53
2022/10/01 00:22:00;;;;;;;17.70;16.55;;;;;;;19.02;77.30;101250.84;4999665;28;102414;-53
2022/10/01 00:24:27;;;;;;;18.45;17.27;;;;;;;19.02;77.27;101252.78;5000581;28;103897;-53
2022/10/01 00:26:53;;;;;;;16.00;15.10;;;;;;;19.02;77.20;101247.25;4997770;28;102013;-53
2022/10/01 00:29:19;;;;;;;16.85;15.93;;;;;;;19.03;77.09;101259.91;5015826;28;102778;-53
2022/10/01 00:31:46;;;;;;;16.10;15.20;;;;;;;19.03;77.19;101259.91;5003538;28;102456;-53
2022/10/01 00:34:14;;;;;;;18.13;17.15;;;;;;;19.03;77.21;101259.91;4995904;28;103910;-53
2022/10/01 00:36:41;;;;;;;16.10;14.80;;;;;;;19.03;77.20;101265.44;4996962;28;102370;-53
2022/10/01 00:39:09;;;;;;;15.30;14.45;;;;;;;19.03;77.19;101268.19;4996035;28;103579;-53
2022/10/01 00:41:36;;;;;;;16.80;15.88;;;;;;;19.02;77.30;101259.13;4997953;28;102755;-53
2022/10/01 00:44:29;;;;;;;17.85;16.88;;;;;;;19.02;76.97;101264.63;5006134;28;103189;-53
2022/10/01 00:47:01;;;;;;;15.95;14.98;;;;;;;19.02;77.26;101263.81;5007575;28;101934;-53
2022/10/01 00:49:32;;;;;;;17.10;16.10;;;;;;;19.01;76.92;101260.25;5015235;28;102215;-53
2022/10/01 00:52:04;;;;;;;15.98;15.07;;;;;;;19.02;76.97;101263.81;5005737;28;102387;-53
2022/10/01 00:54:38;;;;;;;16.70;15.80;;;;;;;19.02;77.09;101259.13;5007747;28;103988;-54
2022/10/01 00:57:06;;;;;;;16.58;15.68;;;;;;;19.02;77.26;101258.31;5015677;28;102430;-52
2022/10/01 00:59:34;;;;;;;17.17;16.25;;;;;;;19.02;76.99;101258.31;5008908;28;102269;-52
2022/10/01 01:02:00;;;;;;;14.90;14.07;;;;;;;19.02;76.99;101269.34;5007558;28;102460;-52
2022/10/01 01:04:28;;;;;;;16.63;15.73;;;;;;;19.02;77.21;101267.38;5010278;28;105008;-52
2022/10/01 01:06:57;;;;;;;16.77;15.90;;;;;;;19.03;77.19;101282.00;5016673;28;102528;-52
2022/10/01 01:09:29;;;;;;;17.00;16.10;;;;;;;19.03;77.24;101270.97;5006714;28;102524;-52
2022/10/01 01:12:02;;;;;;;17.23;16.25;;;;;;;19.02;77.12;101269.34;5008761;28;102403;-54
2022/10/01 01:14:39;;;;;;;14.77;13.98;;;;;;;19.02;76.96;101263.81;5001413;28;104076;-53
2022/10/01 01:17:09;;;;;;;17.67;16.73;;;;;;;19.02;77.26;101266.56;4995244;28;102402;-53
2022/10/01 01:19:54;;;;;;;18.13;17.05;;;;;;;19.01;77.14;101257.50;4990017;28;102112;-53
2022/10/01 01:22:24;;;;;;;16.42;15.52;;;;;;;19.02;77.26;101263.81;4977438;28;102299;-53
2022/10/01 01:24:56;;;;;;;16.45;15.55;;;;;;;19.02;77.23;101269.34;4983880;28;104829;-53
2022/10/01 01:27:32;;;;;;;16.73;15.77;;;;;;;19.03;76.96;101282.00;4990218;28;102634;-53
2022/10/01 01:30:04;;;;;;;17.55;16.55;;;;;;;19.02;76.89;101272.09;4992869;28;102185;-53
2022/10/01 01:32:38;;;;;;;16.70;15.70;;;;;;;19.03;77.15;101276.47;4997542;28;102190;-53
2022/10/01 01:35:08;;;;;;;18.27;17.17;;;;;;;19.02;77.09;101278.41;5012546;28;104415;-53
2022/10/01 01:37:39;;;;;;;16.40;15.50;;;;;;;19.02;77.05;101280.38;5016704;28;102255;-53
2022/10/01 01:40:10;;;;;;;16.65;15.55;;;;;;;19.01;77.11;101290.59;5016124;28;102021;-53
2022/10/01 01:42:40;;;;;;;16.38;15.48;;;;;;;19.01;77.16;101285.06;5012182;28;102104;-53
2022/10/01 01:45:12;;;;;;;17.60;16.67;;;;;;;19.01;77.21;101285.06;5015334;28;104126;-53
2022/10/01 01:47:41;;;;;;;15.43;14.45;;;;;;;19.02;77.05;101288.66;5012813;28;102591;-53
2022/10/01 01:50:09;;;;;;;;;;;;;;;19.01;77.32;101281.50;5006755;28;102930;-53
2022/10/01 01:52:37;;;;;;;14.35;13.55;;;;;;;19.01;77.31;101293.34;4996346;28;102217;-52
2022/10/01 01:55:07;;;;;;;16.65;15.60;;;;;;;19.01;77.31;101292.53;4996927;28;104106;-52
2022/10/01 01:57:36;;;;;;;16.20;15.35;;;;;;;19.01;76.93;101287.84;5015193;28;101860;-53
2022/10/01 02:00:03;;;;;;;17.23;16.25;;;;;;;19.01;77.00;101289.78;4979288;28;102084;-52
2022/10/01 02:02:34;;;;;;;18.63;17.63;;;;;;;19.01;77.11;101287.03;4999399;28;102462;-52
2022/10/01 02:05:06;;;;;;;16.63;15.73;;;;;;;19.01;77.20;101295.28;4974737;28;103953;-53
2022/10/01 02:07:53;;;;;;;17.88;16.88;;;;;;;19.00;77.36;101288.94;4989729;28;103520;-53
2022/10/01 02:10:32;;;;;;;15.80;14.98;;;;;;;19.01;77.07;101292.53;4995523;28;102241;-53
2022/10/01 02:13:13;;;;;;;20.25;19.15;;;;;;;19.01;77.18;101303.56;4996255;28;102372;-53
2022/10/01 02:15:53;;;;;;;18.35;17.35;;;;;;;19.01;77.12;101300.81;4994083;28;103884;-53
2022/10/01 02:18:29;;;;;;;17.00;16.00;;;;;;;19.00;77.22;101299.16;4995593;28;102634;-53
2022/10/01 02:21:04;;;;;;;16.73;15.75;;;;;;;19.01;77.13;101300.81;4993123;28;102478;-53
2022/10/01 02:23:37;;;;;;;17.95;16.95;;;;;;;19.01;77.11;101300.81;4995028;28;102332;-53
2022/10/01 02:26:09;;;;;;;18.08;17.08;;;;;;;19.01;77.39;101289.78;4994073;28;103913;-52
2022/10/01 02:28:40;;;;;;;16.25;15.35;;;;;;;19.00;77.16;101291.69;4994703;28;102243;-54
2022/10/01 02:31:08;;;;;;;15.93;15.10;;;;;;;19.00;77.36;101294.47;4994240;28;102284;-53
2022/10/01 02:33:37;;;;;;;18.20;17.10;;;;;;;19.00;77.18;101291.69;4994908;28;102480;-53
2022/10/01 02:36:07;;;;;;;16.45;15.52;;;;;;;19.01;77.41;101300.81;4998470;28;104000;-53
2022/10/01 02:38:37;;;;;;;18.55;17.50;;;;;;;19.01;77.11;101298.06;5008960;28;102035;-52
2022/10/01 02:41:06;;;;;;;18.50;17.40;;;;;;;19.00;77.02;101299.16;5013480;28;102033;-53
2022/10/01 02:43:38;;;;;;;17.33;16.25;;;;;;;19.00;77.21;101299.16;5013244;28;102194;-52
2022/10/01 02:46:13;;;;;;;18.15;17.10;;;;;;;19.00;77.14;101301.91;5001435;28;104122;-53
2022/10/01 02:48:41;;;;;;;17.52;16.58;;;;;;;18.99;77.05;101297.53;4994791;28;102297;-53
2022/10/01 02:51:20;;;;;;;17.00;16.00;;;;;;;18.99;77.14;101300.31;4988701;28;102307;-53
2022/10/01 02:53:52;;;;;;;19.35;18.25;;;;;;;18.99;77.04;101292.84;4976659;28;102091;-53
2022/10/01 02:57:21;;;;;;;18.45;17.25;;;;;;;18.96;77.37;101288.75;4974583;28;103885;-53
2022/10/01 02:59:06;;;;;;;19.77;18.70;;;;;;;18.96;76.84;101288.75;4984797;28;102189;-53
2022/10/01 03:01:35;;;;;;;19.77;18.57;;;;;;;18.99;77.30;101294.78;4994793;28;102273;-53
2022/10/01 03:04:03;;;;;;;;;;;;;;;18.99;77.04;101286.50;4996190;28;102167;-53
2022/10/01 03:06:29;;;;;;;16.23;15.25;;;;;;;18.98;77.28;101291.22;4993835;28;103960;-53
2022/10/01 03:08:56;;;;;;;18.60;17.58;;;;;;;18.99;77.21;101292.03;4994322;28;102177;-53
2022/10/01 03:11:25;;;;;;;;;;;;;;;18.97;77.31;101286.84;4994542;28;102755;-53
2022/10/01 03:13:52;;;;;;;15.80;14.90;;;;;;;18.99;76.92;101281.00;4998978;28;102283;-53
2022/10/01 03:16:20;;;;;;;18.90;17.80;;;;;;;18.99;77.32;101281.00;5006580;28;103931;-53
2022/10/01 03:18:47;;;;;;;19.83;18.63;;;;;;;18.98;77.25;101285.69;4993848;28;102431;-53
2022/10/01 03:21:15;;;;;;;16.60;15.63;;;;;;;18.98;76.97;101284.88;4992695;28;102516;-53
2022/10/01 03:23:42;;;;;;;19.55;18.38;;;;;;;18.97;77.28;101284.06;4995715;28;102184;-53
2022/10/01 03:26:08;;;;;;;19.02;17.92;;;;;;;18.98;77.13;101285.69;4993914;28;104929;-53
2022/10/01 03:28:34;;;;;;;21.60;20.30;;;;;;;18.98;76.99;101293.97;4990123;28;102179;-53
2022/10/01 03:31:07;;;;;;;20.15;18.88;;;;;;;18.96;77.28;101294.28;4994380;28;102150;-53
2022/10/01 03:33:34;;;;;;;19.15;17.90;;;;;;;18.98;76.99;101296.72;5007269;28;102261;-53
2022/10/01 03:36:01;;;;;;;19.67;18.48;;;;;;;18.97;76.81;101295.13;5010830;28;104389;-53
2022/10/01 03:38:30;;;;;;;22.27;20.88;;;;;;;18.96;77.13;101294.28;4995291;28;102820;-52
2022/10/01 03:40:57;;;;;;;22.00;20.70;;;;;;;18.97;77.01;101300.63;4996814;28;102067;-53
2022/10/01 03:43:24;;;;;;;20.48;19.20;;;;;;;18.96;77.00;101298.97;4998817;28;102720;-53
2022/10/01 03:45:50;;;;;;;20.45;19.20;;;;;;;18.96;77.17;101301.72;4997451;28;103911;-53
2022/10/01 03:48:17;;;;;;;21.38;20.08;;;;;;;18.98;77.05;101309.72;4997863;28;102292;-53
2022/10/01 03:50:52;;;;;;;19.05;17.95;;;;;;;18.97;77.33;101306.16;4998228;28;104855;-53
2022/10/01 03:53:19;;;;;;;20.85;19.52;;;;;;;18.96;77.27;101310.81;4979853;28;102100;-53
2022/10/01 03:55:47;;;;;;;23.42;21.98;;;;;;;18.96;76.95;101316.34;4996953;28;103961;-53
2022/10/01 03:58:13;;;;;;;24.23;22.75;;;;;;;18.96;77.08;101315.53;4998209;28;102199;-53
2022/10/01 04:00:40;;;;;;;22.50;21.10;;;;;;;18.95;77.13;101319.41;4986314;28;102354;-51
2022/10/01 04:03:11;;;;;;;21.70;20.40;;;;;;;18.95;77.01;101314.72;4998577;28;102598;-52
2022/10/01 04:05:40;;;;;;;20.38;19.15;;;;;;;18.96;76.80;101326.56;5013625;28;104131;-52
2022/10/01 04:08:07;;;;;;;23.60;22.23;;;;;;;18.96;76.81;101332.06;5017573;28;102164;-52
2022/10/01 04:10:35;;;;;;;21.42;20.13;;;;;;;18.96;77.11;101343.09;5017144;28;102300;-52
2022/10/01 04:13:03;;;;;;;20.98;19.67;;;;;;;18.95;77.11;101339.53;5014215;28;102200;-53
2022/10/01 04:15:31;;;;;;;19.80;18.60;;;;;;;18.95;76.95;101336.78;5017054;28;104173;-53
2022/10/01 04:17:58;;;;;;;20.48;19.27;;;;;;;18.95;76.78;101336.78;5012464;28;102367;-52
2022/10/01 04:20:25;;;;;;;21.73;20.35;;;;;;;18.94;76.97;101335.16;5000338;28;102498;-52
2022/10/01 04:22:51;;;;;;;22.65;21.15;;;;;;;18.93;77.07;101335.44;4991900;28;102151;-54
2022/10/01 04:25:18;;;;;;;22.73;21.40;;;;;;;18.96;77.14;101343.09;5007018;28;104155;-53
2022/10/01 04:27:54;;;;;;;22.02;20.63;;;;;;;18.95;76.88;101341.50;5016585;28;102417;-53
2022/10/01 04:30:23;;;;;;;20.77;19.40;;;;;;;18.94;77.11;101339.88;5016819;28;102026;-53
2022/10/01 04:32:51;;;;;;;20.90;19.58;;;;;;;18.94;77.08;101346.19;5007951;28;102153;-53
2022/10/01 04:35:18;;;;;;;21.48;20.17;;;;;;;18.94;77.03;101351.72;4996374;28;104099;-52
2022/10/01 04:37:44;;;;;;;21.75;20.35;;;;;;;18.94;76.87;101351.72;4993619;28;102222;-53
2022/10/01 04:40:11;;;;;;;20.23;19.00;;;;;;;18.93;76.99;101339.06;5006380;28;102535;-53
2022/10/01 04:42:40;;;;;;;20.73;19.42;;;;;;;18.93;77.12;101350.09;5014074;28;102432;-53
2022/10/01 04:45:09;;;;;;;22.33;20.90;;;;;;;18.94;76.79;101342.63;5010408;28;103866;-53
2022/10/01 04:47:46;;;;;;;22.27;20.88;;;;;;;18.93;77.20;101333.53;5005509;28;102097;-53
2022/10/01 04:50:14;;;;;;;20.70;19.42;;;;;;;18.93;76.84;101344.56;4996273;28;101948;-53
2022/10/01 04:52:42;;;;;;;22.60;21.10;;;;;;;18.93;77.03;101352.84;4998492;28;102684;-53
2022/10/01 04:55:08;;;;;;;22.80;21.45;;;;;;;18.95;77.02;101358.84;4995998;28;103913;-53
2022/10/01 04:57:37;;;;;;;23.02;21.63;;;;;;;18.95;76.95;101358.03;4999074;28;102398;-53
2022/10/01 05:00:05;;;;;;;21.23;19.88;;;;;;;18.95;77.01;101369.06;4991811;28;102711;-53
2022/10/01 05:02:33;;;;;;;23.00;21.60;;;;;;;18.95;76.95;101358.84;4994442;28;102766;-53
2022/10/01 05:05:02;;;;;;;20.33;18.92;;;;;;;18.98;76.95;101362.13;4991098;28;104257;-53
2022/10/01 05:07:30;;;;;;;23.00;21.48;;;;;;;18.98;76.80;101362.13;4995155;28;102215;-53
2022/10/01 05:09:56;;;;;;;23.48;21.98;;;;;;;18.99;76.58;101363.75;4993569;28;102148;-52
2022/10/01 05:12:24;;;;;;;22.98;21.48;;;;;;;19.02;76.42;101360.38;4997513;28;102256;-53
2022/10/01 05:14:51;;;;;;;23.88;22.27;;;;;;;19.03;76.60;101361.97;4994635;28;103815;-53
2022/10/01 05:17:18;;;;;;;24.85;23.33;;;;;;;19.05;76.49;101363.31;4988821;28;102323;-53
2022/10/01 05:19:45;;;;;;;23.23;21.75;;;;;;;19.06;76.58;101361.38;4993509;28;102389;-53
2022/10/01 05:22:14;;;;;;;24.13;22.60;;;;;;;19.08;76.50;101367.41;4992285;28;102345;-53
2022/10/01 05:24:42;;;;;;;24.48;22.77;;;;;;;19.09;76.45;101360.75;4999197;28;103909;-53
2022/10/01 05:27:12;;;;;;;24.50;22.98;;;;;;;19.10;76.42;101357.66;4996058;28;104150;-53
2022/10/01 05:29:39;;;;;;;23.20;21.67;;;;;;;19.11;76.41;101361.22;4984050;28;102154;-53
2022/10/01 05:32:07;;;;;;;23.73;22.17;;;;;;;19.12;76.27;101365.63;4998606;28;102216;-53
2022/10/01 05:34:36;;;;;;;25.27;23.65;;;;;;;19.14;76.46;101371.66;4996783;28;104146;-53
2022/10/01 05:37:02;;;;;;;24.58;22.98;;;;;;;19.13;76.22;101372.78;4997736;28;102401;-53
2022/10/01 05:39:31;;;;;;;25.77;24.02;;;;;;;19.13;76.35;101370.03;4997169;28;102298;-53
2022/10/01 05:41:58;;;;;;;25.67;23.95;;;;;;;19.12;76.60;101374.72;4997928;28;101952;-53
2022/10/01 05:44:25;;;;;;;25.20;23.55;;;;;;;19.13;76.32;101381.06;4996752;28;104133;-53
2022/10/01 05:46:52;;;;;;;23.85;22.13;;;;;;;19.13;76.38;101383.81;4997301;28;102031;-53
2022/10/01 05:49:19;;;;;;;27.05;25.25;;;;;;;19.13;76.50;101392.09;4996824;28;102135;-53
2022/10/01 05:51:46;;;;;;;25.27;23.58;;;;;;;19.13;76.56;101386.56;4998391;28;102163;-53
2022/10/01 05:54:12;;;;;;;26.92;24.95;;;;;;;19.12;76.44;101387.72;4997112;28;103966;-52
2022/10/01 05:56:41;;;;;;;26.63;24.75;;;;;;;19.13;76.58;101386.56;4998196;28;102007;-53
2022/10/01 05:59:07;;;;;;;27.77;25.77;;;;;;;19.13;76.67;101392.09;4998811;28;102661;-52
2022/10/01 06:01:33;;;;;;;25.98;24.15;;;;;;;19.13;76.31;101386.56;4995989;28;102363;-52
2022/10/01 06:04:01;;;;;;;26.17;24.30;;;;;;;19.14;76.70;101390.94;4995975;28;103975;-52
2022/10/01 06:06:27;;;;;;;27.25;25.15;;;;;;;19.14;76.37;101388.19;4997908;28;102293;-52
2022/10/01 06:08:54;;;;;;;26.83;24.92;;;;;;;19.14;76.56;101385.44;4996892;28;102053;-52
2022/10/01 06:11:22;;;;;;;27.85;25.95;;;;;;;19.15;76.41;101389.84;4997934;28;102398;-52
2022/10/01 06:13:50;;;;;;;27.13;25.25;;;;;;;19.15;76.64;101387.09;4996568;28;103982;-52
2022/10/01 06:16:16;;;;;;;26.02;24.35;;;;;;;19.15;76.74;101389.84;4997119;28;102348;-53
2022/10/01 06:18:43;;;;;;;26.55;24.73;;;;;;;19.16;76.85;101383.19;4996155;28;102724;-53
2022/10/01 06:21:09;;;;;;;27.40;25.58;;;;;;;19.16;76.60;101385.94;4997526;28;102376;-52
2022/10/01 06:23:36;;;;;;;23.88;22.23;;;;;;;19.16;76.53;101389.53;5008743;28;104111;-53
2022/10/01 06:26:07;;;;;;;27.23;25.42;;;;;;;19.18;76.71;101378.16;4997575;28;102277;-52
2022/10/01 06:28:34;;;;;;;25.30;23.55;;;;;;;19.17;76.44;101382.06;4996547;28;102390;-53
2022/10/01 06:31:02;;;;;;;24.70;23.00;;;;;;;19.19;76.81;101390.84;4998013;28;102170;-54
2022/10/01 06:33:31;;;;;;;24.27;22.67;;;;;;;19.20;76.46;101375.91;4995719;28;104152;-53
2022/10/01 06:35:58;;;;;;;25.83;24.17;;;;;;;19.21;76.48;101383.06;4996176;28;102390;-53
2022/10/01 06:38:25;;;;;;;25.08;23.48;;;;;;;19.22;76.75;101384.69;4980064;28;102511;-53
2022/10/01 06:40:53;;;;;;;26.48;24.77;;;;;;;19.24;76.44;101381.63;4992672;28;102189;-53
2022/10/01 06:43:19;;;;;;;21.83;20.38;;;;;;;19.25;76.30;101370.25;4996051;28;103884;-53
2022/10/01 06:45:46;;;;;;;26.92;25.05;;;;;;;19.27;76.54;101381.81;4996830;28;102256;-53
2022/10/01 06:48:16;;;;;;;27.67;25.67;;;;;;;19.28;76.57;101386.19;4995245;28;102028;-53
2022/10/01 06:50:44;;;;;;;24.58;22.83;;;;;;;19.28;76.47;101388.94;4997707;28;101951;-52
2022/10/01 06:53:12;;;;;;;26.58;24.77;;;;;;;19.30;76.18;101386.72;4995392;28;104025;-53
2022/10/01 06:55:39;;;;;;;25.00;23.30;;;;;;;19.30;76.21;101386.72;4989795;28;102390;-53
2022/10/01 06:58:12;;;;;;;27.02;25.27;;;;;;;19.32;76.47;101400.19;4996563;28;102045;-53
2022/10/01 07:00:39;;;;;;;26.85;25.10;;;;;;;19.34;76.30;101397.94;4997313;28;102409;-53
2022/10/01 07:03:09;;;;;;;25.42;23.58;;;;;;;19.32;76.30;101395.47;4995756;28;103862;-53
2022/10/01 07:05:38;;;;;;;24.65;23.02;;;;;;;19.34;76.64;101393.22;4996242;28;102475;-53
2022/10/01 07:08:05;;;;;;;24.73;23.07;;;;;;;19.34;76.61;101398.75;5006501;28;102201;-53
2022/10/01 07:10:33;;;;;;;26.48;24.75;;;;;;;19.36;76.43;101404.75;4978727;28;104725;-53
2022/10/01 07:13:07;;;;;;;24.30;22.75;;;;;;;19.38;76.58;101407.22;5005554;28;103925;-53
2022/10/01 07:15:34;;;;;;;25.42;23.75;;;;;;;19.39;76.62;101406.88;4999010;28;102180;-53
2022/10/01 07:18:05;;;;;;;23.23;21.80;;;;;;;19.39;76.63;101390.31;4997455;28;102461;-53
2022/10/01 07:20:34;;;;;;;27.23;25.42;;;;;;;19.41;76.58;101392.78;5000532;28;102427;-53
2022/10/01 07:23:02;;;;;;;25.33;23.65;;;;;;;19.43;76.23;101385.00;4996498;28;104116;-53
2022/10/01 07:25:29;;;;;;;24.83;23.23;;;;;;;19.43;76.46;101383.03;5003405;28;102332;-53
2022/10/01 07:27:56;;;;;;;25.38;23.65;;;;;;;19.44;76.04;101381.13;5015246;28;101963;-53
2022/10/01 07:30:23;;;;;;;24.20;22.65;;;;;;;19.48;76.29;101381.31;4996482;28;102341;-53
2022/10/01 07:32:50;;;;;;;27.25;25.42;;;;;;;19.48;76.08;101382.13;4998441;28;104114;-53
2022/10/01 07:35:18;;;;;;;25.38;23.70;;;;;;;19.49;76.10;101371.88;4999618;28;102212;-53
2022/10/01 07:37:45;;;;;;;24.02;22.52;;;;;;;19.50;76.24;101376.25;4999445;28;102797;-53
2022/10/01 07:40:15;;;;;;;26.98;25.27;;;;;;;19.51;75.80;101380.66;5000015;28;102371;-53
2022/10/01 07:42:42;;;;;;;25.92;24.30;;;;;;;19.53;76.03;101381.16;4998699;28;103905;-53
2022/10/01 07:45:09;;;;;;;25.75;24.15;;;;;;;19.53;76.07;101375.63;4999480;28;101944;-53
2022/10/01 07:47:36;;;;;;;24.77;23.13;;;;;;;19.54;76.18;101374.50;4998324;28;101886;-53
2022/10/01 07:50:03;;;;;;;26.50;24.92;;;;;;;19.55;75.96;101374.19;4999952;28;102175;-53
2022/10/01 07:52:30;;;;;;;26.33;24.70;;;;;;;19.57;75.95;101379.41;4981993;28;103995;-53
2022/10/01 07:54:58;;;;;;;24.58;23.00;;;;;;;19.60;75.99;101378.78;4982088;28;102341;-53
2022/10/01 07:57:26;;;;;;;25.30;23.80;;;;;;;19.60;75.73;101373.25;4978534;28;102249;-53
2022/10/01 07:59:52;;;;;;;25.27;23.75;;;;;;;19.61;75.72;101374.88;4980345;28;102124;-53
2022/10/01 08:02:19;;;;;;;26.20;24.48;;;;;;;19.62;75.79;101384.81;4986382;28;104169;-53
2022/10/01 08:05:28;;;;;;;25.45;23.92;;;;;;;19.63;75.77;101378.19;4999047;28;102137;-52
2022/10/01 08:07:36;;;;;;;26.10;24.48;;;;;;;19.65;75.87;101381.41;4990524;28;102104;-53
2022/10/01 08:10:03;;;;;;;26.00;24.42;;;;;;;19.66;75.87;101377.53;4999435;28;102158;-53
2022/10/01 08:12:32;;;;;;;25.85;24.23;;;;;;;19.67;75.94;101381.94;4998495;28;104342;-53
2022/10/01 08:14:58;;;;;;;25.42;23.83;;;;;;;19.68;75.58;101375.25;4998949;28;102211;-53
2022/10/01 08:17:24;;;;;;;27.45;25.83;;;;;;;19.68;75.61;101373.31;4997888;28;101965;-53
2022/10/01 08:19:51;;;;;;;27.15;25.55;;;;;;;19.70;75.44;101373.00;4999398;28;102226;-53
2022/10/01 08:22:17;;;;;;;26.85;24.88;;;;;;;19.71;75.79;101369.13;4997816;28;104827;-53
2022/10/01 08:24:44;;;;;;;28.42;26.75;;;;;;;19.73;75.37;101372.38;4992981;28;102113;-53
2022/10/01 08:27:10;;;;;;;26.02;24.42;;;;;;;19.72;75.43;101365.22;4990618;28;101996;-53
2022/10/01 08:29:40;;;;;;;32.72;30.83;;;;;;;19.72;75.25;101370.72;4999748;28;102178;-53
2022/10/01 08:32:06;;;;;;;30.20;28.10;;;;;;;19.72;75.35;101367.97;4997757;28;103776;-53
2022/10/01 08:34:33;;;;;;;30.00;28.30;;;;;;;19.72;75.60;101367.97;4987295;28;101970;-53
2022/10/01 08:37:00;;;;;;;28.20;26.50;;;;;;;19.72;75.64;101361.63;4982764;28;101987;-52
2022/10/01 08:39:26;;;;;;;30.25;28.48;;;;;;;19.71;75.83;101366.34;4999411;28;102399;-53
2022/10/01 08:41:59;;;;;;;26.88;25.23;;;;;;;19.71;75.42;101354.50;4997919;28;104120;-53
2022/10/01 08:44:31;;;;;;;28.02;26.50;;;;;;;19.71;75.47;101343.44;4998798;28;102177;-53
2022/10/01 08:47:07;;;;;;;28.35;26.67;;;;;;;19.71;75.84;101344.25;4997760;28;101930;-53
2022/10/01 08:49:41;;;;;;;28.58;26.88;;;;;;;19.73;75.33;101343.97;4999128;28;101996;-54
2022/10/01 08:52:17;;;;;;;29.60;27.92;;;;;;;19.74;75.55;101346.38;4996343;28;103944;-53
2022/10/01 08:54:48;;;;;;;26.75;25.15;;;;;;;19.74;75.53;101340.88;4996023;28;102252;-53
2022/10/01 08:57:19;;;;;;;28.60;26.98;;;;;;;19.75;75.11;101339.72;4998172;28;101950;-53
2022/10/01 08:59:49;;;;;;;28.35;26.67;;;;;;;19.76;75.33;101337.78;5001570;28;102028;-54
2022/10/01 09:02:23;;;;;;;31.45;29.55;;;;;;;19.75;74.75;101328.69;4998386;28;104689;-53
2022/10/01 09:04:53;;;;;;;66.35;61.03;;;;;;;20.12;72.39;101334.81;5003425;28;102046;-49
2022/10/01 09:07:50;;;;;;;36.22;33.55;;;;;;;20.50;66.51;101334.28;5003034;28;102019;-56
2022/10/01 09:10:34;;;;;;;34.38;32.35;;;;;;;20.76;62.57;101329.56;4977584;28;102659;-55
2022/10/01 09:13:39;;;;;;;35.65;33.70;;;;;;;20.85;60.27;101335.94;4997263;28;104262;-55
2022/10/01 09:16:17;;;;;;;25.80;24.35;;;;;;;20.88;58.71;101335.28;4979780;28;102175;-55
2022/10/01 09:19:00;;;;;;;21.40;19.95;;;;;;;21.02;58.02;101332.31;4997552;28;102672;-55
2022/10/01 09:21:37;;;;;;;14.23;13.13;;;;;;;21.04;57.54;101321.75;4999822;28;102010;-56
2022/10/01 09:24:23;;;;;;;11.70;10.85;;;;;;;21.07;56.93;101317.53;5003194;28;104063;-55
2022/10/01 09:26:50;;;;;;;11.02;10.00;;;;;;;21.03;58.08;101314.59;4995714;28;102490;-56
2022/10/01 09:29:25;;;;;;;9.68;8.88;;;;;;;21.12;57.79;101311.81;4996731;28;104821;-56
2022/10/01 09:31:53;;;;;;;13.57;9.23;;;;;;;21.12;57.46;101315.38;5011907;28;102210;-55
2022/10/01 09:34:29;;;;;;;8.73;7.97;;;;;;;21.28;55.93;101310.16;5000445;28;103937;-55
2022/10/01 09:37:04;;;;;;;9.35;8.65;;;;;;;21.29;55.02;101308.19;5011732;28;102010;-55
2022/10/01 09:39:38;;;;;;;10.00;9.38;;;;;;;21.32;55.50;101294.50;5013341;28;101981;-56
2022/10/01 09:42:05;;;;;;;11.45;10.70;;;;;;;21.41;55.00;101302.81;5006779;28;102534;-55
2022/10/01 09:44:33;;;;;;;12.95;11.75;;;;;;;21.56;54.27;101290.38;5004663;28;103926;-55
2022/10/01 09:46:59;;;;;;;12.23;11.52;;;;;;;21.50;54.44;101288.94;5009575;28;102214;-56
2022/10/01 09:49:32;;;;;;;14.05;12.95;;;;;;;21.47;54.58;101278.53;5010804;28;102096;-55
2022/10/01 09:52:05;;;;;;;15.40;14.50;;;;;;;21.53;54.21;101277.19;5008349;28;101999;-58
2022/10/01 09:54:38;;;;;;;13.23;12.43;;;;;;;21.61;54.39;101270.81;4993765;28;103926;-55
2022/10/01 09:57:08;;;;;;;15.13;14.13;;;;;;;21.47;55.09;101267.47;4996000;28;102077;-56
2022/10/01 09:59:43;;;;;;;13.57;12.75;;;;;;;21.46;54.41;101260.31;5003336;28;102155;-56
2022/10/01 10:02:17;;;;;;;14.85;13.95;;;;;;;21.37;54.86;101267.81;4992426;28;102178;-56
2022/10/01 10:04:45;;;;;;;13.85;12.95;;;;;;;21.23;55.54;101254.94;5002292;28;103844;-56
2022/10/01 10:07:17;;;;;;;15.32;14.05;;;;;;;21.36;55.45;101269.78;4996277;28;102131;-56
2022/10/01 10:09:44;;;;;;;16.08;14.98;;;;;;;21.48;54.52;101263.53;5011555;28;102297;-56
2022/10/01 10:12:27;;;;;;;14.20;12.90;;;;;;;21.56;53.79;101248.84;5009836;28;102458;-56
2022/10/01 10:14:55;;;;;;;14.85;13.63;;;;;;;21.63;53.95;101251.91;5011190;28;104073;-61
2022/10/01 10:17:23;;;;;;;17.50;16.38;;;;;;;21.69;53.81;101247.81;5002985;28;102448;-56
2022/10/01 10:19:51;;;;;;;16.42;15.43;;;;;;;21.74;53.18;101239.28;4997185;28;102461;-56
2022/10/01 10:22:23;;;;;;;16.90;15.57;;;;;;;21.71;53.34;101233.59;5011815;28;103729;-56
2022/10/01 10:24:52;;;;;;;16.95;15.95;;;;;;;21.75;53.10;101232.63;5015593;28;104043;-56
2022/10/01 10:27:25;;;;;;;16.60;15.30;;;;;;;21.79;52.51;101236.34;4996410;28;102111;-56
2022/10/01 10:30:01;;;;;;;17.05;15.73;;;;;;;21.74;51.87;101228.22;4996196;28;102188;-55
2022/10/01 10:32:28;;;;;;;18.67;17.27;;;;;;;21.65;52.32;101235.75;5006516;28;102315;-56
2022/10/01 10:35:03;;;;;;;16.15;14.98;;;;;;;21.65;52.64;101219.16;4997575;28;104554;-55
2022/10/01 10:37:33;;;;;;;18.60;17.30;;;;;;;21.79;51.33;101219.72;5004169;28;103689;-56
2022/10/01 10:40:00;;;;;;;17.90;16.80;;;;;;;21.78;51.21;101217.25;5006787;28;102093;-56
2022/10/01 10:42:28;;;;;;;16.55;15.57;;;;;;;21.82;50.63;101210.75;5010411;28;102282;-56
2022/10/01 10:45:02;;;;;;;16.38;15.55;;;;;;;21.91;50.36;101204.31;5015525;28;104627;-56
2022/10/01 10:47:30;;;;;;;16.80;15.90;;;;;;;21.86;50.31;101210.88;5007025;28;102556;-56
2022/10/01 10:50:01;;;;;;;16.67;15.73;;;;;;;21.87;50.14;101206.16;4985548;28;101950;-56
2022/10/01 10:52:31;;;;;;;16.85;15.95;;;;;;;21.92;50.66;101209.50;4991054;28;102208;-56
2022/10/01 10:54:59;;;;;;;15.32;14.52;;;;;;;21.81;50.26;101200.78;4994133;28;104114;-56
2022/10/01 10:57:27;;;;;;;19.43;18.33;;;;;;;21.87;49.78;101204.19;4995442;28;101991;-56
2022/10/01 10:59:56;;;;;;;16.65;15.43;;;;;;;21.87;49.44;101198.66;4994435;28;102302;-56
2022/10/01 11:02:24;;;;;;;17.70;16.65;;;;;;;21.97;49.38;101197.44;4992005;28;102164;-56
2022/10/01 11:04:53;;;;;;;15.50;14.63;;;;;;;21.97;49.67;101209.34;4994013;28;104100;-56
2022/10/01 11:07:25;;;;;;;16.85;16.00;;;;;;;21.94;48.85;101203.66;4994286;28;102030;-56
2022/10/01 11:10:05;;;;;;;18.35;17.10;;;;;;;21.90;49.02;101197.16;4994892;28;102114;-56
2022/10/01 11:12:45;;;;;;;16.13;15.25;;;;;;;21.82;49.87;101194.13;4995165;28;102196;-56
2022/10/01 11:15:24;;;;;;;13.10;12.30;;;;;;;21.75;50.08;101179.97;4994809;28;104008;-56